sensor_id;sensor_type;location;lat;lon;timestamp;P1;durP1;ratioP1;P2;durP2;ratioP2
69744;SDS011;57015;50.120;-5.168;2022-12-29T00:02:01;25.87;;;3.20;;
69744;SDS011;57015;50.120;-5.168;2022-12-29T00:04:26;28.67;;;3.10;;
69744;SDS011;57015;50.120;-5.168;2022-12-29T00:06:52;34.00;;;3.43;;
69744;SDS011;57015;50.120;-5.168;2022-12-29T00:09:18;21.38;;;2.83;;
69744;SDS011;57015;50.120;-5.168;2022-12-29T00:11:44;27.57;;;3.13;;
69744;SDS011;57015;50.120;-5.168;2022-12-29T00:14:09;26.67;;;2.63;;
69744;SDS011;57015;50.120;-5.168;2022-12-29T00:16:54;25.95;;;3.03;;
69744;SDS011;57015;50.120;-5.168;2022-12-29T00:19:19;26.27;;;4.10;;
69744;SDS011;57015;50.120;-5.168;2022-12-29T00:22:03;19.65;;;3.25;;
69744;SDS011;57015;50.120;-5.168;2022-12-29T00:24:48;19.83;;;2.70;;
69744;SDS011;57015;50.120;-5.168;2022-12-29T00:27:32;23.45;;;3.47;;
69744;SDS011;57015;50.120;-5.168;2022-12-29T00:30:19;24.00;;;3.38;;
69744;SDS011;57015;50.120;-5.168;2022-12-29T00:33:14;20.97;;;3.60;;
69744;SDS011;57015;50.120;-5.168;2022-12-29T00:36:01;29.75;;;3.05;;
69744;SDS011;57015;50.120;-5.168;2022-12-29T00:38:28;25.00;;;3.00;;
69744;SDS011;57015;50.120;-5.168;2022-12-29T00:41:12;32.53;;;4.28;;
69744;SDS011;57015;50.120;-5.168;2022-12-29T00:43:56;26.05;;;3.83;;
69744;SDS011;57015;50.120;-5.168;2022-12-29T00:46:34;23.87;;;3.57;;
69744;SDS011;57015;50.120;-5.168;2022-12-29T00:49:03;20.25;;;3.58;;
69744;SDS011;57015;50.120;-5.168;2022-12-29T00:51:49;19.83;;;2.97;;
69744;SDS011;57015;50.120;-5.168;2022-12-29T00:54:15;18.53;;;2.00;;
69744;SDS011;57015;50.120;-5.168;2022-12-29T00:56:40;17.35;;;2.83;;
69744;SDS011;57015;50.120;-5.168;2022-12-29T00:59:07;22.83;;;2.63;;
69744;SDS011;57015;50.120;-5.168;2022-12-29T01:01:34;26.30;;;3.35;;
69744;SDS011;57015;50.120;-5.168;2022-12-29T01:04:00;26.27;;;3.72;;
69744;SDS011;57015;50.120;-5.168;2022-12-29T01:06:25;28.87;;;4.33;;
69744;SDS011;57015;50.120;-5.168;2022-12-29T01:08:51;24.27;;;4.07;;
69744;SDS011;57015;50.120;-5.168;2022-12-29T01:11:37;29.93;;;3.07;;
69744;SDS011;57015;50.120;-5.168;2022-12-29T01:14:02;34.92;;;4.00;;
69744;SDS011;57015;50.120;-5.168;2022-12-29T01:16:28;26.40;;;3.87;;
69744;SDS011;57015;50.120;-5.168;2022-12-29T01:18:53;25.10;;;3.45;;
69744;SDS011;57015;50.120;-5.168;2022-12-29T01:21:19;24.23;;;3.40;;
69744;SDS011;57015;50.120;-5.168;2022-12-29T01:23:44;23.97;;;3.73;;
69744;SDS011;57015;50.120;-5.168;2022-12-29T01:26:10;25.07;;;2.50;;
69744;SDS011;57015;50.120;-5.168;2022-12-29T01:28:36;25.67;;;3.60;;
69744;SDS011;57015;50.120;-5.168;2022-12-29T01:31:05;17.92;;;3.10;;
69744;SDS011;57015;50.120;-5.168;2022-12-29T01:33:36;29.55;;;4.22;;
69744;SDS011;57015;50.120;-5.168;2022-12-29T01:36:02;17.00;;;1.83;;
69744;SDS011;57015;50.120;-5.168;2022-12-29T01:38:28;21.60;;;2.10;;
69744;SDS011;57015;50.120;-5.168;2022-12-29T01:40:54;15.13;;;2.47;;
69744;SDS011;57015;50.120;-5.168;2022-12-29T01:43:19;15.50;;;1.93;;
69744;SDS011;57015;50.120;-5.168;2022-12-29T01:45:47;17.37;;;2.17;;
69744;SDS011;57015;50.120;-5.168;2022-12-29T01:48:14;15.05;;;1.63;;
69744;SDS011;57015;50.120;-5.168;2022-12-29T01:50:41;15.83;;;1.97;;
69744;SDS011;57015;50.120;-5.168;2022-12-29T01:53:15;13.27;;;1.55;;
69744;SDS011;57015;50.120;-5.168;2022-12-29T01:55:54;15.45;;;1.95;;
69744;SDS011;57015;50.120;-5.168;2022-12-29T01:58:23;18.63;;;2.47;;
69744;SDS011;57015;50.120;-5.168;2022-12-29T02:00:50;16.77;;;1.75;;
69744;SDS011;57015;50.120;-5.168;2022-12-29T02:03:16;20.33;;;2.47;;
69744;SDS011;57015;50.120;-5.168;2022-12-29T02:08:26;13.90;;;1.30;;
69744;SDS011;57015;50.120;-5.168;2022-12-29T02:10:53;18.20;;;1.75;;
69744;SDS011;57015;50.120;-5.168;2022-12-29T02:13:19;22.17;;;2.13;;
69744;SDS011;57015;50.120;-5.168;2022-12-29T02:27:17;11.63;;;2.03;;
69744;SDS011;57015;50.120;-5.168;2022-12-29T02:41:16;8.30;;;1.30;;
69744;SDS011;57015;50.120;-5.168;2022-12-29T02:43:59;13.77;;;1.47;;
69744;SDS011;57015;50.120;-5.168;2022-12-29T02:49:20;12.45;;;1.30;;
69744;SDS011;57015;50.120;-5.168;2022-12-29T02:54:23;10.27;;;0.98;;
69744;SDS011;57015;50.120;-5.168;2022-12-29T02:59:45;14.65;;;1.80;;
69744;SDS011;57015;50.120;-5.168;2022-12-29T03:13:12;9.75;;;1.30;;
69744;SDS011;57015;50.120;-5.168;2022-12-29T03:24:14;10.48;;;1.13;;
69744;SDS011;57015;50.120;-5.168;2022-12-29T03:26:41;16.65;;;1.58;;
69744;SDS011;57015;50.120;-5.168;2022-12-29T03:29:08;8.70;;;1.20;;
69744;SDS011;57015;50.120;-5.168;2022-12-29T03:31:34;10.95;;;0.88;;
69744;SDS011;57015;50.120;-5.168;2022-12-29T03:34:01;8.40;;;1.45;;
69744;SDS011;57015;50.120;-5.168;2022-12-29T03:36:30;9.70;;;1.13;;
69744;SDS011;57015;50.120;-5.168;2022-12-29T03:39:00;13.30;;;1.15;;
69744;SDS011;57015;50.120;-5.168;2022-12-29T03:41:30;10.32;;;1.30;;
69744;SDS011;57015;50.120;-5.168;2022-12-29T03:43:57;10.18;;;0.95;;
69744;SDS011;57015;50.120;-5.168;2022-12-29T03:46:23;6.90;;;0.80;;
69744;SDS011;57015;50.120;-5.168;2022-12-29T03:48:48;13.27;;;1.80;;
69744;SDS011;57015;50.120;-5.168;2022-12-29T03:51:14;14.97;;;1.30;;
69744;SDS011;57015;50.120;-5.168;2022-12-29T03:53:39;6.22;;;0.95;;
69744;SDS011;57015;50.120;-5.168;2022-12-29T03:56:04;12.43;;;1.00;;
69744;SDS011;57015;50.120;-5.168;2022-12-29T03:58:30;16.40;;;1.90;;
69744;SDS011;57015;50.120;-5.168;2022-12-29T04:00:56;19.23;;;1.60;;
69744;SDS011;57015;50.120;-5.168;2022-12-29T04:03:21;13.88;;;1.27;;
69744;SDS011;57015;50.120;-5.168;2022-12-29T04:05:47;7.97;;;0.73;;
69744;SDS011;57015;50.120;-5.168;2022-12-29T04:08:12;7.53;;;0.70;;
69744;SDS011;57015;50.120;-5.168;2022-12-29T04:10:37;7.67;;;0.63;;
69744;SDS011;57015;50.120;-5.168;2022-12-29T04:13:03;12.10;;;0.77;;
69744;SDS011;57015;50.120;-5.168;2022-12-29T04:15:28;9.30;;;0.50;;
69744;SDS011;57015;50.120;-5.168;2022-12-29T04:17:54;11.87;;;1.90;;
69744;SDS011;57015;50.120;-5.168;2022-12-29T04:20:19;8.87;;;0.93;;
69744;SDS011;57015;50.120;-5.168;2022-12-29T04:23:03;8.57;;;1.33;;
69744;SDS011;57015;50.120;-5.168;2022-12-29T04:25:30;11.18;;;0.52;;
69744;SDS011;57015;50.120;-5.168;2022-12-29T04:27:56;6.03;;;0.70;;
69744;SDS011;57015;50.120;-5.168;2022-12-29T04:30:21;7.60;;;1.40;;
69744;SDS011;57015;50.120;-5.168;2022-12-29T04:32:47;10.87;;;1.03;;
69744;SDS011;57015;50.120;-5.168;2022-12-29T04:35:12;7.43;;;0.60;;
69744;SDS011;57015;50.120;-5.168;2022-12-29T04:37:37;4.20;;;0.80;;
69744;SDS011;57015;50.120;-5.168;2022-12-29T04:40:03;6.23;;;0.40;;
69744;SDS011;57015;50.120;-5.168;2022-12-29T04:42:29;8.50;;;0.93;;
69744;SDS011;57015;50.120;-5.168;2022-12-29T04:44:54;11.37;;;1.03;;
69744;SDS011;57015;50.120;-5.168;2022-12-29T04:47:19;7.83;;;1.73;;
69744;SDS011;57015;50.120;-5.168;2022-12-29T04:49:45;15.83;;;2.10;;
69744;SDS011;57015;50.120;-5.168;2022-12-29T04:52:10;8.37;;;0.67;;
69744;SDS011;57015;50.120;-5.168;2022-12-29T04:54:36;9.98;;;0.95;;
69744;SDS011;57015;50.120;-5.168;2022-12-29T04:57:01;12.07;;;1.07;;
69744;SDS011;57015;50.120;-5.168;2022-12-29T04:59:26;9.87;;;1.03;;
69744;SDS011;57015;50.120;-5.168;2022-12-29T05:01:52;12.70;;;1.70;;
69744;SDS011;57015;50.120;-5.168;2022-12-29T05:04:17;12.27;;;1.77;;
69744;SDS011;57015;50.120;-5.168;2022-12-29T05:06:42;12.57;;;1.15;;
69744;SDS011;57015;50.120;-5.168;2022-12-29T05:09:08;14.45;;;1.23;;
69744;SDS011;57015;50.120;-5.168;2022-12-29T05:11:33;10.73;;;0.80;;
69744;SDS011;57015;50.120;-5.168;2022-12-29T05:13:59;15.60;;;1.60;;
69744;SDS011;57015;50.120;-5.168;2022-12-29T05:16:24;17.67;;;1.10;;
69744;SDS011;57015;50.120;-5.168;2022-12-29T05:18:49;12.53;;;1.37;;
69744;SDS011;57015;50.120;-5.168;2022-12-29T05:21:15;11.97;;;1.30;;
69744;SDS011;57015;50.120;-5.168;2022-12-29T05:23:40;7.67;;;0.97;;
69744;SDS011;57015;50.120;-5.168;2022-12-29T05:26:05;12.43;;;1.20;;
69744;SDS011;57015;50.120;-5.168;2022-12-29T05:28:31;8.77;;;1.03;;
69744;SDS011;57015;50.120;-5.168;2022-12-29T05:30:56;14.23;;;1.42;;
69744;SDS011;57015;50.120;-5.168;2022-12-29T05:33:21;13.95;;;1.33;;
69744;SDS011;57015;50.120;-5.168;2022-12-29T05:35:47;11.03;;;1.27;;
69744;SDS011;57015;50.120;-5.168;2022-12-29T05:38:12;16.53;;;2.37;;
69744;SDS011;57015;50.120;-5.168;2022-12-29T05:40:38;12.27;;;1.03;;
69744;SDS011;57015;50.120;-5.168;2022-12-29T05:43:03;9.97;;;1.30;;
69744;SDS011;57015;50.120;-5.168;2022-12-29T05:45:28;6.83;;;0.97;;
69744;SDS011;57015;50.120;-5.168;2022-12-29T05:47:54;15.25;;;1.63;;
69744;SDS011;57015;50.120;-5.168;2022-12-29T05:50:19;13.05;;;1.25;;
69744;SDS011;57015;50.120;-5.168;2022-12-29T05:52:44;10.63;;;1.40;;
69744;SDS011;57015;50.120;-5.168;2022-12-29T05:55:10;12.53;;;1.90;;
69744;SDS011;57015;50.120;-5.168;2022-12-29T05:57:36;6.13;;;1.05;;
69744;SDS011;57015;50.120;-5.168;2022-12-29T06:00:02;9.23;;;1.10;;
69744;SDS011;57015;50.120;-5.168;2022-12-29T06:02:29;12.13;;;0.85;;
69744;SDS011;57015;50.120;-5.168;2022-12-29T06:04:54;13.73;;;1.67;;
69744;SDS011;57015;50.120;-5.168;2022-12-29T06:07:19;13.87;;;1.07;;
69744;SDS011;57015;50.120;-5.168;2022-12-29T06:09:45;12.77;;;0.93;;
69744;SDS011;57015;50.120;-5.168;2022-12-29T06:12:10;13.00;;;1.20;;
69744;SDS011;57015;50.120;-5.168;2022-12-29T06:14:36;12.50;;;1.07;;
69744;SDS011;57015;50.120;-5.168;2022-12-29T06:17:01;9.10;;;0.98;;
69744;SDS011;57015;50.120;-5.168;2022-12-29T06:19:27;9.07;;;0.67;;
69744;SDS011;57015;50.120;-5.168;2022-12-29T06:21:52;8.17;;;1.23;;
69744;SDS011;57015;50.120;-5.168;2022-12-29T06:24:18;11.40;;;1.00;;
69744;SDS011;57015;50.120;-5.168;2022-12-29T06:26:44;6.43;;;0.80;;
69744;SDS011;57015;50.120;-5.168;2022-12-29T06:29:09;8.07;;;0.60;;
69744;SDS011;57015;50.120;-5.168;2022-12-29T06:31:35;16.70;;;1.47;;
69744;SDS011;57015;50.120;-5.168;2022-12-29T06:34:00;8.15;;;1.65;;
69744;SDS011;57015;50.120;-5.168;2022-12-29T06:36:26;9.43;;;1.03;;
69744;SDS011;57015;50.120;-5.168;2022-12-29T06:38:51;11.07;;;1.07;;
69744;SDS011;57015;50.120;-5.168;2022-12-29T06:41:17;15.48;;;1.65;;
69744;SDS011;57015;50.120;-5.168;2022-12-29T06:43:44;9.53;;;1.50;;
69744;SDS011;57015;50.120;-5.168;2022-12-29T06:46:09;15.38;;;1.63;;
69744;SDS011;57015;50.120;-5.168;2022-12-29T06:48:34;13.87;;;1.20;;
69744;SDS011;57015;50.120;-5.168;2022-12-29T06:51:00;17.40;;;1.70;;
69744;SDS011;57015;50.120;-5.168;2022-12-29T06:53:25;14.97;;;1.47;;
69744;SDS011;57015;50.120;-5.168;2022-12-29T06:55:51;25.50;;;2.38;;
69744;SDS011;57015;50.120;-5.168;2022-12-29T06:58:17;12.57;;;2.07;;
69744;SDS011;57015;50.120;-5.168;2022-12-29T07:00:42;18.73;;;2.43;;
69744;SDS011;57015;50.120;-5.168;2022-12-29T07:03:07;21.43;;;2.00;;
69744;SDS011;57015;50.120;-5.168;2022-12-29T07:05:33;19.90;;;2.23;;
69744;SDS011;57015;50.120;-5.168;2022-12-29T07:07:58;19.98;;;2.08;;
69744;SDS011;57015;50.120;-5.168;2022-12-29T07:10:24;15.45;;;2.28;;
69744;SDS011;57015;50.120;-5.168;2022-12-29T07:12:50;19.58;;;2.65;;
69744;SDS011;57015;50.120;-5.168;2022-12-29T07:15:16;15.63;;;3.07;;
69744;SDS011;57015;50.120;-5.168;2022-12-29T07:17:41;21.63;;;3.10;;
69744;SDS011;57015;50.120;-5.168;2022-12-29T07:20:07;19.20;;;2.50;;
69744;SDS011;57015;50.120;-5.168;2022-12-29T07:22:33;16.30;;;1.92;;
69744;SDS011;57015;50.120;-5.168;2022-12-29T07:24:58;19.47;;;2.10;;
69744;SDS011;57015;50.120;-5.168;2022-12-29T07:27:24;18.35;;;2.35;;
69744;SDS011;57015;50.120;-5.168;2022-12-29T07:29:49;24.43;;;2.87;;
69744;SDS011;57015;50.120;-5.168;2022-12-29T07:32:14;13.87;;;1.77;;
69744;SDS011;57015;50.120;-5.168;2022-12-29T07:34:40;12.93;;;2.30;;
69744;SDS011;57015;50.120;-5.168;2022-12-29T07:37:05;12.10;;;1.53;;
69744;SDS011;57015;50.120;-5.168;2022-12-29T07:39:31;16.05;;;1.73;;
69744;SDS011;57015;50.120;-5.168;2022-12-29T07:41:56;12.18;;;1.70;;
69744;SDS011;57015;50.120;-5.168;2022-12-29T07:44:22;15.87;;;2.03;;
69744;SDS011;57015;50.120;-5.168;2022-12-29T07:46:47;12.73;;;1.70;;
69744;SDS011;57015;50.120;-5.168;2022-12-29T07:49:12;10.00;;;0.80;;
69744;SDS011;57015;50.120;-5.168;2022-12-29T07:51:38;17.13;;;1.13;;
69744;SDS011;57015;50.120;-5.168;2022-12-29T07:54:03;16.73;;;1.23;;
69744;SDS011;57015;50.120;-5.168;2022-12-29T07:56:29;14.30;;;2.10;;
69744;SDS011;57015;50.120;-5.168;2022-12-29T07:58:54;11.67;;;1.60;;
69744;SDS011;57015;50.120;-5.168;2022-12-29T08:01:19;13.23;;;1.93;;
69744;SDS011;57015;50.120;-5.168;2022-12-29T08:03:46;13.73;;;2.13;;
69744;SDS011;57015;50.120;-5.168;2022-12-29T08:06:11;14.43;;;1.67;;
69744;SDS011;57015;50.120;-5.168;2022-12-29T08:08:37;11.33;;;1.20;;
69744;SDS011;57015;50.120;-5.168;2022-12-29T08:11:03;13.27;;;1.35;;
69744;SDS011;57015;50.120;-5.168;2022-12-29T08:13:29;15.30;;;1.90;;
69744;SDS011;57015;50.120;-5.168;2022-12-29T08:15:54;9.87;;;1.43;;
69744;SDS011;57015;50.120;-5.168;2022-12-29T08:18:19;11.23;;;1.77;;
69744;SDS011;57015;50.120;-5.168;2022-12-29T08:20:45;9.47;;;1.70;;
69744;SDS011;57015;50.120;-5.168;2022-12-29T08:23:10;14.57;;;1.57;;
69744;SDS011;57015;50.120;-5.168;2022-12-29T08:25:35;13.00;;;1.90;;
69744;SDS011;57015;50.120;-5.168;2022-12-29T08:28:01;10.82;;;1.10;;
69744;SDS011;57015;50.120;-5.168;2022-12-29T08:30:26;9.90;;;1.15;;
69744;SDS011;57015;50.120;-5.168;2022-12-29T08:32:52;10.07;;;1.30;;
69744;SDS011;57015;50.120;-5.168;2022-12-29T08:35:17;17.37;;;1.70;;
69744;SDS011;57015;50.120;-5.168;2022-12-29T08:37:43;8.83;;;1.40;;
69744;SDS011;57015;50.120;-5.168;2022-12-29T08:40:08;8.13;;;0.80;;
69744;SDS011;57015;50.120;-5.168;2022-12-29T08:42:34;12.90;;;1.73;;
69744;SDS011;57015;50.120;-5.168;2022-12-29T08:44:59;11.77;;;1.43;;
69744;SDS011;57015;50.120;-5.168;2022-12-29T08:47:25;12.75;;;1.80;;
69744;SDS011;57015;50.120;-5.168;2022-12-29T08:49:51;9.77;;;1.83;;
69744;SDS011;57015;50.120;-5.168;2022-12-29T08:52:16;12.82;;;1.00;;
69744;SDS011;57015;50.120;-5.168;2022-12-29T08:54:42;16.00;;;1.30;;
69744;SDS011;57015;50.120;-5.168;2022-12-29T08:57:07;10.80;;;1.23;;
69744;SDS011;57015;50.120;-5.168;2022-12-29T08:59:32;10.77;;;1.17;;
69744;SDS011;57015;50.120;-5.168;2022-12-29T09:01:58;8.97;;;1.13;;
69744;SDS011;57015;50.120;-5.168;2022-12-29T09:04:23;10.33;;;1.30;;
69744;SDS011;57015;50.120;-5.168;2022-12-29T09:06:49;12.23;;;1.52;;
69744;SDS011;57015;50.120;-5.168;2022-12-29T09:09:14;11.57;;;1.70;;
69744;SDS011;57015;50.120;-5.168;2022-12-29T09:11:41;12.00;;;1.42;;
69744;SDS011;57015;50.120;-5.168;2022-12-29T09:14:06;15.45;;;1.63;;
69744;SDS011;57015;50.120;-5.168;2022-12-29T09:16:32;16.10;;;1.90;;
69744;SDS011;57015;50.120;-5.168;2022-12-29T09:18:58;15.57;;;1.27;;
69744;SDS011;57015;50.120;-5.168;2022-12-29T09:21:23;12.30;;;2.07;;
69744;SDS011;57015;50.120;-5.168;2022-12-29T09:23:49;16.67;;;2.43;;
69744;SDS011;57015;50.120;-5.168;2022-12-29T09:26:14;13.70;;;1.77;;
69744;SDS011;57015;50.120;-5.168;2022-12-29T09:28:40;18.70;;;1.85;;
69744;SDS011;57015;50.120;-5.168;2022-12-29T09:31:05;16.90;;;2.77;;
69744;SDS011;57015;50.120;-5.168;2022-12-29T09:33:31;18.17;;;1.73;;
69744;SDS011;57015;50.120;-5.168;2022-12-29T09:35:58;16.63;;;2.63;;
69744;SDS011;57015;50.120;-5.168;2022-12-29T09:38:24;15.87;;;3.07;;
69744;SDS011;57015;50.120;-5.168;2022-12-29T09:40:51;14.27;;;1.73;;
69744;SDS011;57015;50.120;-5.168;2022-12-29T09:51:50;14.68;;;1.90;;
69744;SDS011;57015;50.120;-5.168;2022-12-29T09:56:46;17.55;;;2.47;;
69744;SDS011;57015;50.120;-5.168;2022-12-29T09:59:17;18.05;;;2.20;;
69744;SDS011;57015;50.120;-5.168;2022-12-29T10:01:52;15.40;;;1.83;;
69744;SDS011;57015;50.120;-5.168;2022-12-29T10:04:22;17.17;;;2.15;;
69744;SDS011;57015;50.120;-5.168;2022-12-29T10:14:57;12.48;;;1.55;;
69744;SDS011;57015;50.120;-5.168;2022-12-29T10:20:52;12.33;;;1.70;;
69744;SDS011;57015;50.120;-5.168;2022-12-29T10:25:37;15.18;;;2.35;;
69744;SDS011;57015;50.120;-5.168;2022-12-29T10:28:05;14.13;;;1.55;;
69744;SDS011;57015;50.120;-5.168;2022-12-29T10:30:34;14.10;;;2.13;;
69744;SDS011;57015;50.120;-5.168;2022-12-29T10:33:01;19.30;;;2.60;;
69744;SDS011;57015;50.120;-5.168;2022-12-29T10:35:34;19.20;;;2.58;;
69744;SDS011;57015;50.120;-5.168;2022-12-29T10:43:51;15.80;;;1.70;;
69744;SDS011;57015;50.120;-5.168;2022-12-29T10:46:19;15.77;;;3.15;;
69744;SDS011;57015;50.120;-5.168;2022-12-29T10:48:48;22.85;;;2.42;;
69744;SDS011;57015;50.120;-5.168;2022-12-29T10:51:18;19.53;;;2.00;;
69744;SDS011;57015;50.120;-5.168;2022-12-29T10:54:33;15.57;;;2.03;;
69744;SDS011;57015;50.120;-5.168;2022-12-29T10:56:42;15.30;;;1.60;;
69744;SDS011;57015;50.120;-5.168;2022-12-29T10:59:16;12.03;;;1.20;;
69744;SDS011;57015;50.120;-5.168;2022-12-29T11:07:00;13.80;;;1.35;;
69744;SDS011;57015;50.120;-5.168;2022-12-29T11:09:29;16.83;;;2.17;;
69744;SDS011;57015;50.120;-5.168;2022-12-29T11:11:56;12.23;;;1.88;;
69744;SDS011;57015;50.120;-5.168;2022-12-29T11:14:29;11.13;;;1.23;;
69744;SDS011;57015;50.120;-5.168;2022-12-29T11:17:00;12.27;;;1.63;;
69744;SDS011;57015;50.120;-5.168;2022-12-29T11:19:27;21.20;;;1.70;;
69744;SDS011;57015;50.120;-5.168;2022-12-29T11:21:56;11.35;;;1.10;;
69744;SDS011;57015;50.120;-5.168;2022-12-29T11:24:43;12.27;;;1.52;;
69744;SDS011;57015;50.120;-5.168;2022-12-29T11:27:19;10.30;;;1.00;;
69744;SDS011;57015;50.120;-5.168;2022-12-29T11:29:48;13.85;;;1.10;;
69744;SDS011;57015;50.120;-5.168;2022-12-29T11:32:18;11.95;;;1.80;;
69744;SDS011;57015;50.120;-5.168;2022-12-29T11:34:48;9.27;;;1.45;;
69744;SDS011;57015;50.120;-5.168;2022-12-29T11:37:23;7.27;;;0.90;;
69744;SDS011;57015;50.120;-5.168;2022-12-29T11:42:23;15.85;;;1.67;;
69744;SDS011;57015;50.120;-5.168;2022-12-29T11:45:35;12.02;;;1.17;;
69744;SDS011;57015;50.120;-5.168;2022-12-29T11:48:07;7.07;;;1.50;;
69744;SDS011;57015;50.120;-5.168;2022-12-29T11:50:35;16.27;;;1.23;;
69744;SDS011;57015;50.120;-5.168;2022-12-29T11:53:21;22.23;;;1.90;;
69744;SDS011;57015;50.120;-5.168;2022-12-29T11:55:52;7.22;;;1.52;;
69744;SDS011;57015;50.120;-5.168;2022-12-29T11:58:19;8.48;;;1.40;;
69744;SDS011;57015;50.120;-5.168;2022-12-29T12:00:45;14.27;;;1.30;;
69744;SDS011;57015;50.120;-5.168;2022-12-29T12:05:48;12.63;;;1.20;;
69744;SDS011;57015;50.120;-5.168;2022-12-29T12:08:26;11.45;;;0.85;;
69744;SDS011;57015;50.120;-5.168;2022-12-29T12:11:04;11.77;;;1.73;;
69744;SDS011;57015;50.120;-5.168;2022-12-29T12:13:35;11.63;;;1.20;;
69744;SDS011;57015;50.120;-5.168;2022-12-29T12:24:20;10.35;;;1.05;;
69744;SDS011;57015;50.120;-5.168;2022-12-29T12:29:15;5.03;;;0.37;;
69744;SDS011;57015;50.120;-5.168;2022-12-29T12:32:01;4.40;;;0.50;;
69744;SDS011;57015;50.120;-5.168;2022-12-29T12:34:42;10.70;;;0.88;;
69744;SDS011;57015;50.120;-5.168;2022-12-29T12:39:47;8.00;;;0.63;;
69744;SDS011;57015;50.120;-5.168;2022-12-29T12:42:58;6.85;;;1.15;;
69744;SDS011;57015;50.120;-5.168;2022-12-29T13:12:48;7.75;;;0.80;;
69744;SDS011;57015;50.120;-5.168;2022-12-29T13:28:47;14.63;;;1.60;;
69744;SDS011;57015;50.120;-5.168;2022-12-29T13:33:51;13.73;;;1.30;;
69744;SDS011;57015;50.120;-5.168;2022-12-29T13:36:43;9.25;;;1.08;;
69744;SDS011;57015;50.120;-5.168;2022-12-29T13:39:15;14.25;;;1.63;;
69744;SDS011;57015;50.120;-5.168;2022-12-29T13:41:46;11.37;;;1.50;;
69744;SDS011;57015;50.120;-5.168;2022-12-29T13:44:15;12.52;;;1.45;;
69744;SDS011;57015;50.120;-5.168;2022-12-29T13:46:43;7.60;;;0.77;;
69744;SDS011;57015;50.120;-5.168;2022-12-29T13:49:18;11.75;;;1.15;;
69744;SDS011;57015;50.120;-5.168;2022-12-29T13:51:48;12.95;;;1.08;;
69744;SDS011;57015;50.120;-5.168;2022-12-29T13:54:27;11.90;;;1.23;;
69744;SDS011;57015;50.120;-5.168;2022-12-29T13:57:15;6.30;;;1.15;;
69744;SDS011;57015;50.120;-5.168;2022-12-29T14:00:03;7.90;;;1.00;;
69744;SDS011;57015;50.120;-5.168;2022-12-29T14:07:45;7.17;;;0.63;;
69744;SDS011;57015;50.120;-5.168;2022-12-29T14:13:10;5.70;;;0.80;;
69744;SDS011;57015;50.120;-5.168;2022-12-29T14:15:39;8.33;;;1.23;;
69744;SDS011;57015;50.120;-5.168;2022-12-29T14:18:22;4.28;;;1.00;;
69744;SDS011;57015;50.120;-5.168;2022-12-29T14:23:46;8.40;;;1.05;;
69744;SDS011;57015;50.120;-5.168;2022-12-29T14:26:18;7.40;;;0.90;;
69744;SDS011;57015;50.120;-5.168;2022-12-29T14:31:50;6.32;;;0.63;;
69744;SDS011;57015;50.120;-5.168;2022-12-29T14:34:25;7.32;;;1.00;;
69744;SDS011;57015;50.120;-5.168;2022-12-29T14:44:30;5.13;;;0.70;;
69744;SDS011;57015;50.120;-5.168;2022-12-29T14:46:57;6.67;;;1.10;;
69744;SDS011;57015;50.120;-5.168;2022-12-29T14:49:26;7.63;;;0.73;;
69744;SDS011;57015;50.120;-5.168;2022-12-29T14:52:04;10.95;;;1.10;;
69744;SDS011;57015;50.120;-5.168;2022-12-29T14:57:04;5.63;;;0.80;;
69744;SDS011;57015;50.120;-5.168;2022-12-29T14:59:31;7.03;;;1.13;;
69744;SDS011;57015;50.120;-5.168;2022-12-29T15:01:57;10.68;;;1.00;;
69744;SDS011;57015;50.120;-5.168;2022-12-29T15:04:27;9.63;;;0.98;;
69744;SDS011;57015;50.120;-5.168;2022-12-29T15:06:55;14.30;;;1.37;;
69744;SDS011;57015;50.120;-5.168;2022-12-29T15:09:35;6.85;;;1.40;;
69744;SDS011;57015;50.120;-5.168;2022-12-29T15:12:20;7.77;;;1.23;;
69744;SDS011;57015;50.120;-5.168;2022-12-29T15:15:38;13.18;;;1.80;;
69744;SDS011;57015;50.120;-5.168;2022-12-29T15:18:14;8.77;;;1.10;;
69744;SDS011;57015;50.120;-5.168;2022-12-29T15:20:51;8.82;;;1.02;;
69744;SDS011;57015;50.120;-5.168;2022-12-29T15:23:20;9.15;;;0.93;;
69744;SDS011;57015;50.120;-5.168;2022-12-29T15:25:55;9.23;;;0.97;;
69744;SDS011;57015;50.120;-5.168;2022-12-29T15:28:23;6.15;;;1.10;;
69744;SDS011;57015;50.120;-5.168;2022-12-29T15:30:57;9.45;;;1.10;;
69744;SDS011;57015;50.120;-5.168;2022-12-29T15:33:27;5.87;;;1.27;;
69744;SDS011;57015;50.120;-5.168;2022-12-29T15:35:53;9.32;;;1.10;;
69744;SDS011;57015;50.120;-5.168;2022-12-29T15:38:21;9.77;;;1.52;;
69744;SDS011;57015;50.120;-5.168;2022-12-29T15:40:53;10.60;;;0.97;;
69744;SDS011;57015;50.120;-5.168;2022-12-29T15:46:06;7.57;;;1.48;;
69744;SDS011;57015;50.120;-5.168;2022-12-29T15:48:32;8.63;;;1.30;;
69744;SDS011;57015;50.120;-5.168;2022-12-29T15:50:57;11.95;;;1.45;;
69744;SDS011;57015;50.120;-5.168;2022-12-29T15:53:25;9.38;;;1.00;;
69744;SDS011;57015;50.120;-5.168;2022-12-29T15:55:54;11.13;;;1.20;;
69744;SDS011;57015;50.120;-5.168;2022-12-29T15:58:21;8.38;;;1.58;;
69744;SDS011;57015;50.120;-5.168;2022-12-29T16:01:01;10.40;;;1.23;;
69744;SDS011;57015;50.120;-5.168;2022-12-29T16:03:35;14.57;;;1.70;;
69744;SDS011;57015;50.120;-5.168;2022-12-29T16:06:35;13.23;;;1.33;;
69744;SDS011;57015;50.120;-5.168;2022-12-29T16:13:59;12.45;;;1.35;;
69744;SDS011;57015;50.120;-5.168;2022-12-29T16:16:26;10.00;;;0.97;;
69744;SDS011;57015;50.120;-5.168;2022-12-29T16:18:54;9.88;;;1.75;;
69744;SDS011;57015;50.120;-5.168;2022-12-29T16:21:21;5.45;;;1.27;;
69744;SDS011;57015;50.120;-5.168;2022-12-29T16:23:55;10.85;;;1.40;;
69744;SDS011;57015;50.120;-5.168;2022-12-29T16:26:25;11.85;;;1.65;;
69744;SDS011;57015;50.120;-5.168;2022-12-29T16:28:51;13.70;;;1.80;;
69744;SDS011;57015;50.120;-5.168;2022-12-29T16:31:25;10.15;;;2.10;;
69744;SDS011;57015;50.120;-5.168;2022-12-29T16:34:09;5.97;;;1.77;;
69744;SDS011;57015;50.120;-5.168;2022-12-29T16:39:45;10.45;;;2.40;;
69744;SDS011;57015;50.120;-5.168;2022-12-29T16:47:46;9.60;;;1.30;;
69744;SDS011;57015;50.120;-5.168;2022-12-29T16:50:30;10.20;;;1.70;;
69744;SDS011;57015;50.120;-5.168;2022-12-29T16:52:55;6.97;;;1.67;;
69744;SDS011;57015;50.120;-5.168;2022-12-29T16:55:21;6.05;;;1.50;;
69744;SDS011;57015;50.120;-5.168;2022-12-29T16:57:47;10.48;;;1.90;;
69744;SDS011;57015;50.120;-5.168;2022-12-29T17:00:18;5.65;;;2.00;;
69744;SDS011;57015;50.120;-5.168;2022-12-29T17:02:45;10.48;;;2.30;;
69744;SDS011;57015;50.120;-5.168;2022-12-29T17:05:12;7.63;;;1.63;;
69744;SDS011;57015;50.120;-5.168;2022-12-29T17:07:39;11.73;;;1.90;;
69744;SDS011;57015;50.120;-5.168;2022-12-29T17:10:04;11.80;;;2.30;;
69744;SDS011;57015;50.120;-5.168;2022-12-29T17:12:30;7.00;;;1.50;;
69744;SDS011;57015;50.120;-5.168;2022-12-29T17:15:03;10.30;;;1.42;;
69744;SDS011;57015;50.120;-5.168;2022-12-29T17:17:42;10.13;;;1.52;;
69744;SDS011;57015;50.120;-5.168;2022-12-29T17:20:16;12.33;;;1.83;;
69744;SDS011;57015;50.120;-5.168;2022-12-29T17:22:47;5.78;;;1.00;;
69744;SDS011;57015;50.120;-5.168;2022-12-29T17:25:13;7.93;;;1.20;;
69744;SDS011;57015;50.120;-5.168;2022-12-29T17:27:42;6.95;;;1.10;;
69744;SDS011;57015;50.120;-5.168;2022-12-29T17:30:22;10.50;;;1.67;;
69744;SDS011;57015;50.120;-5.168;2022-12-29T17:32:57;10.07;;;1.37;;
69744;SDS011;57015;50.120;-5.168;2022-12-29T17:35:25;8.60;;;1.42;;
69744;SDS011;57015;50.120;-5.168;2022-12-29T17:37:52;12.57;;;1.52;;
69744;SDS011;57015;50.120;-5.168;2022-12-29T17:40:24;7.73;;;0.87;;
69744;SDS011;57015;50.120;-5.168;2022-12-29T17:42:52;7.28;;;1.38;;
69744;SDS011;57015;50.120;-5.168;2022-12-29T17:45:20;5.25;;;1.02;;
69744;SDS011;57015;50.120;-5.168;2022-12-29T17:47:48;8.30;;;1.48;;
69744;SDS011;57015;50.120;-5.168;2022-12-29T17:50:15;8.00;;;1.23;;